createdAt,value
2023-05-10T00:02:10.832Z,34.83
2023-05-10T00:04:38.184Z,35.88
2023-05-10T00:07:05.407Z,35.13
2023-05-10T00:09:32.693Z,36.95
2023-05-10T00:11:59.988Z,33.65
2023-05-10T00:14:27.206Z,35.42
2023-05-10T00:16:54.586Z,34.03
2023-05-10T00:19:21.956Z,32.83
2023-05-10T00:21:49.263Z,35.20
2023-05-10T00:24:16.587Z,34.20
2023-05-10T00:26:43.837Z,33.78
2023-05-10T00:29:11.141Z,34.50
2023-05-10T00:31:38.495Z,34.88
2023-05-10T00:34:05.804Z,32.78
2023-05-10T00:36:33.048Z,34.03
2023-05-10T00:39:00.756Z,36.80
2023-05-10T00:41:28.604Z,35.53
2023-05-10T00:43:56.022Z,38.95
2023-05-10T00:46:24.353Z,38.50
2023-05-10T00:48:51.825Z,39.28
2023-05-10T00:51:19.120Z,40.00
2023-05-10T00:53:47.712Z,42.40
2023-05-10T00:56:15.137Z,46.85
2023-05-10T00:58:42.503Z,44.33
2023-05-10T01:01:10.320Z,47.70
2023-05-10T01:03:37.873Z,46.83
2023-05-10T01:06:05.337Z,47.65
2023-05-10T01:08:32.685Z,45.60
2023-05-10T01:11:00.330Z,47.78
2023-05-10T01:13:38.856Z,46.05
2023-05-10T01:16:07.424Z,49.40
2023-05-10T01:18:39.890Z,46.58
2023-05-10T01:21:25.337Z,45.28
2023-05-10T01:24:09.066Z,45.58
2023-05-10T01:26:55.226Z,43.97
2023-05-10T01:29:30.517Z,44.30
2023-05-10T01:31:57.943Z,44.30
2023-05-10T01:34:37.415Z,40.65
2023-05-10T01:37:07.683Z,42.75
2023-05-10T01:39:50.300Z,47.05
2023-05-10T01:42:21.653Z,46.53
2023-05-10T01:44:58.595Z,46.08
2023-05-10T01:47:31.105Z,50.58
2023-05-10T01:50:02.428Z,48.42
2023-05-10T01:52:34.549Z,44.67
2023-05-10T01:55:08.171Z,45.10
2023-05-10T01:57:40.485Z,47.72
2023-05-10T02:00:09.521Z,43.00
2023-05-10T02:02:43.723Z,45.47
2023-05-10T02:05:13.818Z,41.67
2023-05-10T02:07:41.117Z,44.67
2023-05-10T02:10:09.284Z,39.67
2023-05-10T02:12:37.678Z,43.30
2023-05-10T02:15:07.295Z,47.33
2023-05-10T02:17:35.032Z,42.38
2023-05-10T02:20:02.870Z,40.55
2023-05-10T02:22:30.310Z,43.85
2023-05-10T02:24:59.329Z,39.90
2023-05-10T02:27:27.796Z,44.40
2023-05-10T02:29:56.061Z,40.97
2023-05-10T02:32:24.373Z,42.33
2023-05-10T02:34:52.961Z,43.45
2023-05-10T02:37:21.003Z,41.20
2023-05-10T02:39:49.004Z,36.67
2023-05-10T02:42:20.424Z,41.05
2023-05-10T02:44:49.648Z,37.92
2023-05-10T02:49:44.358Z,38.45
2023-05-10T02:52:11.877Z,41.47
2023-05-10T02:54:51.650Z,43.03
2023-05-10T02:57:20.251Z,44.85
2023-05-10T02:59:47.606Z,47.67
2023-05-10T03:02:14.957Z,45.25
2023-05-10T03:04:42.303Z,45.53
2023-05-10T03:07:10.307Z,47.92
2023-05-10T03:09:37.730Z,45.42
2023-05-10T03:12:23.852Z,49.70
2023-05-10T03:14:55.259Z,48.63
2023-05-10T03:17:22.994Z,50.78
2023-05-10T03:19:53.764Z,52.08
2023-05-10T03:22:30.086Z,50.88
2023-05-10T03:25:01.122Z,48.13
2023-05-10T03:27:31.637Z,48.60
2023-05-10T03:30:01.445Z,48.40
2023-05-10T03:34:57.500Z,50.10
2023-05-10T03:37:25.986Z,49.00
2023-05-10T03:39:53.214Z,47.88
2023-05-10T03:42:20.563Z,48.15
2023-05-10T03:44:47.836Z,48.65
2023-05-10T03:47:15.155Z,47.97
2023-05-10T03:49:42.411Z,49.00
2023-05-10T03:52:10.532Z,50.75
2023-05-10T03:54:37.868Z,57.33
2023-05-10T03:57:05.965Z,53.90
2023-05-10T03:59:33.568Z,54.10
2023-05-10T04:02:00.967Z,60.10
2023-05-10T04:04:28.388Z,58.72
2023-05-10T04:06:55.925Z,59.30
2023-05-10T04:09:23.231Z,57.75
2023-05-10T04:11:50.601Z,57.03
2023-05-10T04:14:17.887Z,57.17
2023-05-10T04:16:45.649Z,56.30
2023-05-10T04:19:12.950Z,60.40
2023-05-10T04:21:40.242Z,59.25
2023-05-10T04:24:07.572Z,54.63
2023-05-10T04:26:34.813Z,49.63
2023-05-10T04:29:02.152Z,39.65
2023-05-10T04:31:29.493Z,35.35
2023-05-10T04:33:56.718Z,31.95
2023-05-10T04:36:24.131Z,27.27
2023-05-10T04:38:51.373Z,23.60
2023-05-10T04:41:18.724Z,22.63
2023-05-10T04:43:46.016Z,22.10
2023-05-10T04:46:13.376Z,23.23
2023-05-10T04:48:40.636Z,18.25
2023-05-10T04:51:07.877Z,21.13
2023-05-10T04:53:35.103Z,22.88
2023-05-10T04:56:02.419Z,20.60
2023-05-10T04:58:29.816Z,20.75
2023-05-10T05:00:57.067Z,20.35
2023-05-10T05:03:24.399Z,20.23
2023-05-10T05:05:51.700Z,19.13
2023-05-10T05:08:19.073Z,21.95
2023-05-10T05:10:46.352Z,20.83
2023-05-10T05:13:14.367Z,22.60
2023-05-10T05:15:41.778Z,24.73
2023-05-10T05:18:09.132Z,23.75
2023-05-10T05:20:36.393Z,23.95
2023-05-10T05:23:03.667Z,23.58
2023-05-10T05:25:30.949Z,24.08
2023-05-10T05:27:58.446Z,20.90
2023-05-10T05:30:25.801Z,19.40
2023-05-10T05:32:53.449Z,19.77
2023-05-10T05:35:20.841Z,20.65
2023-05-10T05:37:48.077Z,21.55
2023-05-10T05:40:15.383Z,24.35
2023-05-10T05:42:43.120Z,19.00
2023-05-10T05:45:13.947Z,21.98
2023-05-10T05:47:41.754Z,23.25
2023-05-10T05:50:09.369Z,22.52
2023-05-10T05:52:37.170Z,21.58
2023-05-10T05:55:04.676Z,24.90
2023-05-10T05:57:31.973Z,24.00
2023-05-10T05:59:59.262Z,25.38
2023-05-10T06:02:26.662Z,25.45
2023-05-10T06:04:53.971Z,26.00
2023-05-10T06:07:21.320Z,21.15
2023-05-10T06:09:48.594Z,23.23
2023-05-10T06:12:15.923Z,21.70
2023-05-10T06:14:43.148Z,24.27
2023-05-10T06:17:10.477Z,24.25
2023-05-10T06:19:37.904Z,23.20
2023-05-10T06:22:05.113Z,21.83
2023-05-10T06:24:32.476Z,19.00
2023-05-10T06:27:01.422Z,20.02
2023-05-10T06:29:28.717Z,18.98
2023-05-10T06:31:56.063Z,19.02
2023-05-10T06:34:23.362Z,19.08
2023-05-10T06:36:50.679Z,22.33
2023-05-10T06:39:17.920Z,18.67
2023-05-10T06:41:45.183Z,20.38
2023-05-10T06:44:12.492Z,19.65
2023-05-10T06:46:39.753Z,18.92
2023-05-10T06:49:07.051Z,16.50
2023-05-10T06:51:34.404Z,14.98
2023-05-10T06:54:02.179Z,20.42
2023-05-10T06:56:29.424Z,17.08
2023-05-10T06:58:56.958Z,17.40
2023-05-10T07:01:24.521Z,17.65
2023-05-10T07:03:52.054Z,17.88
2023-05-10T07:06:32.332Z,17.00
2023-05-10T07:08:59.944Z,18.05
2023-05-10T07:11:28.283Z,17.33
2023-05-10T07:13:55.620Z,17.17
2023-05-10T07:16:23.050Z,15.43
2023-05-10T07:18:51.612Z,14.32
2023-05-10T07:21:18.954Z,15.07
2023-05-10T07:23:46.268Z,14.65
2023-05-10T07:26:13.677Z,14.60
2023-05-10T07:28:40.909Z,14.35
2023-05-10T07:31:08.263Z,14.60
2023-05-10T07:33:35.664Z,15.05
2023-05-10T07:36:02.875Z,13.10
2023-05-10T07:38:30.153Z,12.38
2023-05-10T07:40:57.751Z,11.13
2023-05-10T07:43:25.004Z,12.15
2023-05-10T07:45:55.385Z,12.60
2023-05-10T07:48:23.536Z,10.63
2023-05-10T07:50:50.900Z,12.07
2023-05-10T07:53:19.569Z,12.10
2023-05-10T07:55:51.503Z,10.98
2023-05-10T07:58:19.079Z,11.05
2023-05-10T08:00:46.363Z,10.10
2023-05-10T08:03:13.843Z,9.85
2023-05-10T08:05:41.690Z,8.65
2023-05-10T08:08:08.999Z,10.43
2023-05-10T08:10:36.372Z,9.48
2023-05-10T08:13:03.680Z,8.13
2023-05-10T08:15:30.953Z,10.25
2023-05-10T08:17:58.308Z,9.93
2023-05-10T08:20:25.787Z,8.60
2023-05-10T08:22:53.241Z,8.68
2023-05-10T08:25:20.509Z,9.80
2023-05-10T08:27:47.770Z,8.57
2023-05-10T08:30:15.254Z,8.57
2023-05-10T08:32:42.653Z,7.85
2023-05-10T08:35:09.928Z,9.93
2023-05-10T08:37:37.197Z,6.93
2023-05-10T08:40:04.776Z,6.97
2023-05-10T08:42:32.610Z,7.18
2023-05-10T08:45:01.212Z,6.57
2023-05-10T08:47:29.086Z,6.47
2023-05-10T08:49:56.452Z,5.90
2023-05-10T08:52:26.140Z,5.68
2023-05-10T08:54:53.547Z,6.70
2023-05-10T08:57:21.326Z,5.68
2023-05-10T08:59:48.982Z,6.85
2023-05-10T09:02:18.591Z,6.57
2023-05-10T09:04:46.489Z,6.75
2023-05-10T09:07:13.881Z,7.60
2023-05-10T09:09:41.404Z,8.15
2023-05-10T09:12:12.172Z,7.18
2023-05-10T09:14:39.889Z,7.00
2023-05-10T09:17:07.359Z,6.93
2023-05-10T09:19:34.616Z,5.88
2023-05-10T09:22:03.299Z,7.55
2023-05-10T09:24:31.017Z,8.52
2023-05-10T09:27:02.092Z,7.97
2023-05-10T09:29:40.499Z,6.95
2023-05-10T09:32:07.729Z,8.05
2023-05-10T09:34:36.409Z,8.45
2023-05-10T09:37:05.358Z,7.05
2023-05-10T09:39:36.704Z,7.80
2023-05-10T09:42:04.949Z,7.57
2023-05-10T09:44:33.443Z,7.03
2023-05-10T09:47:01.018Z,8.32
2023-05-10T09:49:28.418Z,7.57
2023-05-10T09:52:08.587Z,6.60
2023-05-10T09:54:36.935Z,6.43
2023-05-10T09:57:04.342Z,6.40
2023-05-10T09:59:32.143Z,6.10
2023-05-10T10:02:01.514Z,6.82
2023-05-10T10:04:29.345Z,6.10
2023-05-10T10:07:06.650Z,6.30
2023-05-10T10:09:34.534Z,5.35
2023-05-10T10:12:02.282Z,6.40
2023-05-10T10:14:30.493Z,6.05
2023-05-10T10:17:07.485Z,6.40
2023-05-10T10:19:36.768Z,5.67
2023-05-10T10:22:04.502Z,6.60
2023-05-10T10:24:31.902Z,7.53
2023-05-10T10:27:14.471Z,8.00
2023-05-10T10:29:48.514Z,7.95
2023-05-10T10:32:27.623Z,7.10
2023-05-10T10:34:56.066Z,8.07
2023-05-10T10:37:23.304Z,6.97
2023-05-10T10:39:51.467Z,6.72
2023-05-10T10:42:38.701Z,8.23
2023-05-10T10:45:15.530Z,7.88
2023-05-10T10:47:44.594Z,5.38
2023-05-10T10:50:13.991Z,7.20
2023-05-10T10:52:42.274Z,8.57
2023-05-10T10:55:15.995Z,6.03
2023-05-10T10:57:49.690Z,4.30
2023-05-10T11:00:26.182Z,4.13
2023-05-10T11:02:54.769Z,4.28
2023-05-10T11:05:25.785Z,5.18
2023-05-10T11:07:54.762Z,5.03
2023-05-10T11:10:22.597Z,4.93
2023-05-10T11:13:05.261Z,5.28
2023-05-10T11:15:33.236Z,6.47
2023-05-10T11:18:00.821Z,5.90
2023-05-10T11:20:40.396Z,4.80
2023-05-10T11:23:16.613Z,7.25
2023-05-10T11:25:45.228Z,5.22
2023-05-10T11:28:14.559Z,6.07
2023-05-10T11:30:42.380Z,6.05
2023-05-10T11:33:10.072Z,9.70
2023-05-10T11:35:43.218Z,10.23
2023-05-10T11:38:14.935Z,11.18
2023-05-10T11:40:42.513Z,10.45
2023-05-10T11:43:11.456Z,12.30
2023-05-10T11:45:38.902Z,14.43
2023-05-10T11:48:06.290Z,12.20
2023-05-10T11:50:33.914Z,10.90
2023-05-10T11:53:01.216Z,11.65
2023-05-10T11:55:28.532Z,13.27
2023-05-10T11:57:56.373Z,13.52
2023-05-10T12:00:23.725Z,15.95
2023-05-10T12:02:51.215Z,14.48
2023-05-10T12:05:18.624Z,15.13
2023-05-10T12:07:45.899Z,15.68
2023-05-10T12:10:20.348Z,13.45
2023-05-10T12:12:49.110Z,14.15
2023-05-10T12:15:21.014Z,13.18
2023-05-10T12:17:48.803Z,15.00
2023-05-10T12:20:20.613Z,14.88
2023-05-10T12:22:48.783Z,13.25
2023-05-10T12:25:16.170Z,13.80
2023-05-10T12:27:49.099Z,12.88
2023-05-10T12:30:21.028Z,9.95
2023-05-10T12:32:48.384Z,11.95
2023-05-10T12:35:16.863Z,9.18
2023-05-10T12:37:45.042Z,10.52
2023-05-10T12:40:13.274Z,8.83
2023-05-10T12:42:41.214Z,9.40
2023-05-10T12:45:09.330Z,10.32
2023-05-10T12:47:36.939Z,11.07
2023-05-10T12:50:04.563Z,9.75
2023-05-10T12:52:33.190Z,11.07
2023-05-10T12:55:01.604Z,10.15
2023-05-10T12:57:30.266Z,10.55
2023-05-10T12:59:58.325Z,9.65
2023-05-10T13:02:25.721Z,9.48
2023-05-10T13:04:53.058Z,8.25
2023-05-10T13:07:20.406Z,9.75
2023-05-10T13:09:47.663Z,10.25
2023-05-10T13:12:14.899Z,9.20
2023-05-10T13:14:42.117Z,9.55
2023-05-10T13:17:09.466Z,8.63
2023-05-10T13:19:36.904Z,8.57
2023-05-10T13:22:04.486Z,9.63
2023-05-10T13:24:31.788Z,8.38
2023-05-10T13:26:59.952Z,10.15
2023-05-10T13:29:27.292Z,11.70
2023-05-10T13:31:54.723Z,9.18
2023-05-10T13:34:22.317Z,10.77
2023-05-10T13:36:49.880Z,9.95
2023-05-10T13:39:17.776Z,9.57
2023-05-10T13:41:45.070Z,9.80
2023-05-10T13:44:14.024Z,9.60
2023-05-10T13:46:41.594Z,9.38
2023-05-10T13:49:08.917Z,8.32
2023-05-10T13:51:36.654Z,10.02
2023-05-10T13:54:04.396Z,8.38
2023-05-10T13:56:31.654Z,8.90
2023-05-10T13:58:59.490Z,7.57
2023-05-10T14:01:26.773Z,7.38
2023-05-10T14:03:54.038Z,6.97
2023-05-10T14:06:21.412Z,7.80
2023-05-10T14:08:48.794Z,6.15
2023-05-10T14:11:16.247Z,6.13
2023-05-10T14:13:43.544Z,5.95
2023-05-10T14:16:10.996Z,6.15
2023-05-10T14:18:38.282Z,6.63
2023-05-10T14:21:05.665Z,6.13
2023-05-10T14:23:33.575Z,5.10
2023-05-10T14:26:00.879Z,4.88
2023-05-10T14:28:28.441Z,5.97
2023-05-10T14:30:55.742Z,4.80
2023-05-10T14:33:24.579Z,5.40
2023-05-10T14:35:54.317Z,5.88
2023-05-10T14:38:22.468Z,6.45
2023-05-10T14:41:19.897Z,6.15
2023-05-10T14:43:49.852Z,6.78
2023-05-10T14:46:45.763Z,6.22
2023-05-10T14:49:45.225Z,5.93
2023-05-10T14:52:22.478Z,6.15
2023-05-10T14:54:49.985Z,6.53
2023-05-10T14:57:17.429Z,6.38
2023-05-10T14:59:46.339Z,6.32
2023-05-10T15:02:14.973Z,7.05
2023-05-10T15:04:42.632Z,7.38
2023-05-10T15:07:10.347Z,6.38
2023-05-10T15:09:40.046Z,6.97
2023-05-10T15:12:09.862Z,7.65
2023-05-10T15:14:40.765Z,7.70
2023-05-10T15:17:09.028Z,8.05
2023-05-10T15:19:36.960Z,7.80
2023-05-10T15:22:05.962Z,7.30
2023-05-10T15:24:33.313Z,7.63
2023-05-10T15:27:00.974Z,8.50
2023-05-10T15:29:28.349Z,8.77
2023-05-10T15:31:55.693Z,7.35
2023-05-10T15:34:22.968Z,7.78
2023-05-10T15:36:50.189Z,9.75
2023-05-10T15:39:17.477Z,8.57
2023-05-10T15:41:44.690Z,7.55
2023-05-10T15:44:12.054Z,7.53
2023-05-10T15:46:41.102Z,9.05
2023-05-10T15:49:11.357Z,8.25
2023-05-10T15:51:41.187Z,9.82
2023-05-10T15:54:23.531Z,10.18
2023-05-10T15:56:56.119Z,8.85
2023-05-10T15:59:27.341Z,9.65
2023-05-10T16:02:03.467Z,9.45
2023-05-10T16:04:39.484Z,10.35
2023-05-10T16:07:08.503Z,10.88
2023-05-10T16:09:39.779Z,9.70
2023-05-10T16:12:13.944Z,8.85
2023-05-10T16:14:53.089Z,10.60
2023-05-10T16:17:27.200Z,10.18
2023-05-10T16:19:57.376Z,11.38
2023-05-10T16:22:30.537Z,10.05
2023-05-10T16:25:00.160Z,11.07
2023-05-10T16:27:31.251Z,11.55
2023-05-10T16:30:02.305Z,11.95
2023-05-10T16:32:30.620Z,11.70
2023-05-10T16:34:59.747Z,11.93
2023-05-10T16:37:27.722Z,12.57
2023-05-10T16:39:54.982Z,11.27
2023-05-10T16:42:26.574Z,10.98
2023-05-10T16:44:56.483Z,12.43
2023-05-10T16:47:30.763Z,12.02
2023-05-10T16:50:03.527Z,12.40
2023-05-10T16:52:32.433Z,11.55
2023-05-10T16:54:59.959Z,10.77
2023-05-10T16:57:27.933Z,9.77
2023-05-10T16:59:56.219Z,9.13
2023-05-10T17:02:24.034Z,10.32
2023-05-10T17:04:53.089Z,11.68
2023-05-10T17:09:55.304Z,10.52
2023-05-10T17:12:25.181Z,10.32
2023-05-10T17:14:54.988Z,8.88
2023-05-10T17:19:53.882Z,9.65
2023-05-10T17:22:25.042Z,9.82
2023-05-10T17:25:03.143Z,9.25
2023-05-10T17:27:33.089Z,10.97
2023-05-10T17:30:02.998Z,9.82
2023-05-10T17:32:37.458Z,10.63
2023-05-10T17:35:06.079Z,11.23
2023-05-10T17:37:33.747Z,10.00
2023-05-10T17:40:01.379Z,11.70
2023-05-10T17:42:28.722Z,9.50
2023-05-10T17:44:56.114Z,11.20
2023-05-10T17:47:23.617Z,10.45
2023-05-10T17:49:51.036Z,10.30
2023-05-10T17:52:18.225Z,10.35
2023-05-10T17:54:45.669Z,9.35
2023-05-10T17:57:12.930Z,9.10
2023-05-10T17:59:40.252Z,9.85
2023-05-10T18:02:07.553Z,9.75
2023-05-10T18:04:34.861Z,10.90
2023-05-10T18:07:02.969Z,11.10
2023-05-10T18:09:33.260Z,9.90
2023-05-10T18:12:02.761Z,10.00
2023-05-10T18:14:39.728Z,9.57
2023-05-10T18:17:07.840Z,10.40
2023-05-10T18:19:35.334Z,11.45
2023-05-10T18:22:02.775Z,11.20
2023-05-10T18:24:38.875Z,11.80
2023-05-10T18:27:07.568Z,13.55
2023-05-10T18:29:35.101Z,11.95
2023-05-10T18:32:04.021Z,11.18
2023-05-10T18:34:41.970Z,9.93
2023-05-10T18:37:11.609Z,11.07
2023-05-10T18:39:42.467Z,11.10
2023-05-10T18:42:10.010Z,10.68
2023-05-10T18:44:37.255Z,11.13
2023-05-10T18:47:04.556Z,11.25
2023-05-10T18:49:32.240Z,9.65
2023-05-10T18:52:02.072Z,11.82
2023-05-10T18:54:42.417Z,10.55
2023-05-10T18:57:13.567Z,10.70
2023-05-10T18:59:40.923Z,11.00
2023-05-10T19:02:08.172Z,11.68
2023-05-10T19:04:35.509Z,12.40
2023-05-10T19:07:03.455Z,9.50
2023-05-10T19:09:30.924Z,10.68
2023-05-10T19:11:59.869Z,10.32
2023-05-10T19:14:27.899Z,9.30
2023-05-10T19:16:56.994Z,9.55
2023-05-10T19:19:25.775Z,10.77
2023-05-10T19:21:53.871Z,12.23
2023-05-10T19:24:23.814Z,11.20
2023-05-10T19:26:52.235Z,11.82
2023-05-10T19:31:49.744Z,10.43
2023-05-10T19:34:17.136Z,12.88
2023-05-10T19:36:45.062Z,10.23
2023-05-10T19:39:13.240Z,10.30
2023-05-10T19:41:40.550Z,12.60
2023-05-10T19:44:08.250Z,11.45
2023-05-10T19:46:35.537Z,11.15
2023-05-10T19:49:02.818Z,10.45
2023-05-10T19:51:30.090Z,10.75
2023-05-10T19:53:58.191Z,11.93
2023-05-10T19:56:27.024Z,11.38
2023-05-10T19:58:54.278Z,10.65
2023-05-10T20:01:21.639Z,12.43
2023-05-10T20:03:48.952Z,12.60
2023-05-10T20:06:16.214Z,11.88
2023-05-10T20:08:43.606Z,21.48
2023-05-10T20:11:11.245Z,14.32
2023-05-10T20:13:38.913Z,11.23
2023-05-10T20:16:06.996Z,13.77
2023-05-10T20:18:35.953Z,11.32
2023-05-10T20:21:07.178Z,12.07
2023-05-10T20:23:36.399Z,11.82
2023-05-10T20:26:05.803Z,13.45
2023-05-10T20:31:03.985Z,12.38
2023-05-10T20:33:32.074Z,11.60
2023-05-10T20:35:59.614Z,11.65
2023-05-10T20:38:26.924Z,12.82
2023-05-10T20:40:54.174Z,13.90
2023-05-10T20:43:21.546Z,11.18
2023-05-10T20:45:48.965Z,12.32
2023-05-10T20:48:17.491Z,13.05
2023-05-10T20:50:55.489Z,13.75
2023-05-10T20:53:25.068Z,13.50
2023-05-10T20:55:58.744Z,13.82
2023-05-10T20:58:36.869Z,16.15
2023-05-10T21:01:20.168Z,15.57
2023-05-10T21:04:11.130Z,14.50
2023-05-10T21:06:41.311Z,15.93
2023-05-10T21:09:19.595Z,13.80
2023-05-10T21:11:49.654Z,13.82
2023-05-10T21:14:17.564Z,15.13
2023-05-10T21:16:44.849Z,15.63
2023-05-10T21:19:12.145Z,15.77
2023-05-10T21:21:39.412Z,16.67
2023-05-10T21:24:07.167Z,13.43
2023-05-10T21:26:34.521Z,15.15
2023-05-10T21:29:04.938Z,15.13
2023-05-10T21:31:34.017Z,15.30
2023-05-10T21:34:02.924Z,15.20
2023-05-10T21:36:44.535Z,15.05
2023-05-10T21:39:46.338Z,15.57
2023-05-10T21:42:18.599Z,16.20
2023-05-10T21:44:47.949Z,15.48
2023-05-10T21:47:18.137Z,14.52
2023-05-10T21:49:45.884Z,15.20
2023-05-10T21:52:15.453Z,15.35
2023-05-10T21:54:44.621Z,15.93
2023-05-10T21:57:12.304Z,18.27
2023-05-10T21:59:40.030Z,16.52
2023-05-10T22:02:07.534Z,16.00
2023-05-10T22:04:34.888Z,15.40
2023-05-10T22:07:02.160Z,13.90
2023-05-10T22:09:29.650Z,14.52
2023-05-10T22:11:56.922Z,14.77
2023-05-10T22:14:24.231Z,14.80
2023-05-10T22:16:51.617Z,16.10
2023-05-10T22:19:18.903Z,15.45
2023-05-10T22:21:46.243Z,17.30
2023-05-10T22:24:13.544Z,17.15
2023-05-10T22:26:40.851Z,15.18
2023-05-10T22:29:08.134Z,15.38
2023-05-10T22:31:36.130Z,17.75
2023-05-10T22:34:03.556Z,16.35
2023-05-10T22:36:31.554Z,16.40
2023-05-10T22:38:58.832Z,16.15
2023-05-10T22:41:26.031Z,17.48
2023-05-10T22:43:53.301Z,16.80
2023-05-10T22:46:20.700Z,17.20
2023-05-10T22:48:48.960Z,16.17
2023-05-10T22:51:16.336Z,15.45
2023-05-10T22:53:43.690Z,17.42
2023-05-10T22:56:10.999Z,15.75
2023-05-10T22:58:38.328Z,15.32
2023-05-10T23:01:05.655Z,15.02
2023-05-10T23:03:32.863Z,14.15
2023-05-10T23:06:00.189Z,16.98
2023-05-10T23:08:27.982Z,15.60
2023-05-10T23:10:55.556Z,15.77
2023-05-10T23:13:23.177Z,17.25
2023-05-10T23:15:50.778Z,14.15
2023-05-10T23:18:18.217Z,14.50
2023-05-10T23:20:45.582Z,14.73
2023-05-10T23:23:12.893Z,15.88
2023-05-10T23:25:40.136Z,14.77
2023-05-10T23:28:07.471Z,15.15
2023-05-10T23:30:34.713Z,13.57
2023-05-10T23:33:02.115Z,15.68
2023-05-10T23:35:29.357Z,14.57
2023-05-10T23:37:56.611Z,15.85
2023-05-10T23:40:23.862Z,14.90
2023-05-10T23:42:51.635Z,14.75
2023-05-10T23:45:18.870Z,15.27
2023-05-10T23:47:46.185Z,17.10
2023-05-10T23:50:13.415Z,14.45
2023-05-10T23:52:40.648Z,14.88
2023-05-10T23:55:08.256Z,15.02
2023-05-10T23:57:35.720Z,16.05
